createdAt,value
2023-02-16T00:00:26.263Z,13.80
2023-02-16T00:05:26.365Z,15.50
2023-02-16T00:10:26.132Z,12.00
2023-02-16T00:15:26.055Z,13.80
2023-02-16T00:20:25.981Z,12.69
2023-02-16T00:25:25.950Z,13.69
2023-02-16T00:30:25.945Z,14.89
2023-02-16T00:35:25.878Z,14.60
2023-02-16T00:40:25.859Z,14.00
2023-02-16T00:45:25.667Z,14.69
2023-02-16T00:50:25.604Z,14.80
2023-02-16T00:55:25.532Z,12.00
2023-02-16T01:00:25.488Z,12.10
2023-02-16T01:05:25.403Z,10.80
2023-02-16T01:10:25.341Z,16.00
2023-02-16T01:15:25.278Z,12.19
2023-02-16T01:20:25.209Z,15.30
2023-02-16T01:25:25.143Z,16.00
2023-02-16T01:30:25.160Z,13.19
2023-02-16T01:35:25.034Z,14.69
2023-02-16T01:40:24.944Z,13.50
2023-02-16T01:45:24.898Z,15.50
2023-02-16T01:50:24.822Z,18.89
2023-02-16T01:55:24.773Z,19.00
2023-02-16T02:00:24.687Z,14.50
2023-02-16T02:05:24.645Z,11.80
2023-02-16T02:10:24.567Z,12.39
2023-02-16T02:15:24.520Z,13.50
2023-02-16T02:20:24.437Z,13.80
2023-02-16T02:25:24.378Z,16.00
2023-02-16T02:30:24.363Z,12.19
2023-02-16T02:35:24.250Z,11.39
2023-02-16T02:40:24.197Z,14.10
2023-02-16T02:45:24.126Z,14.00
2023-02-16T02:50:24.050Z,16.00
2023-02-16T02:55:24.004Z,13.50
2023-02-16T03:00:23.927Z,17.29
2023-02-16T03:05:23.881Z,16.20
2023-02-16T03:10:23.798Z,16.89
2023-02-16T03:15:23.899Z,18.60
2023-02-16T03:20:23.824Z,15.69
2023-02-16T03:25:23.723Z,21.39
2023-02-16T03:30:23.822Z,21.00
2023-02-16T03:35:23.483Z,19.79
2023-02-16T03:40:23.410Z,16.20
2023-02-16T03:45:23.350Z,26.79
2023-02-16T03:50:23.285Z,21.89
2023-02-16T03:55:23.223Z,22.60
2023-02-16T04:00:23.150Z,22.70
2023-02-16T04:05:23.098Z,22.60
2023-02-16T04:10:23.034Z,21.70
2023-02-16T04:15:22.986Z,21.70
2023-02-16T04:20:22.907Z,24.79
2023-02-16T04:25:22.845Z,23.20
2023-02-16T04:30:22.810Z,25.60
2023-02-16T04:35:22.716Z,22.20
2023-02-16T04:40:22.666Z,23.39
2023-02-16T04:45:22.605Z,20.10
2023-02-16T04:50:22.519Z,22.00
2023-02-16T04:55:22.441Z,17.70
2023-02-16T05:00:22.384Z,21.00
2023-02-16T05:05:22.313Z,21.70
2023-02-16T05:10:22.253Z,22.10
2023-02-16T05:15:22.182Z,24.29
2023-02-16T05:20:22.123Z,19.29
2023-02-16T05:25:22.240Z,23.39
2023-02-16T05:30:22.089Z,22.10
2023-02-16T05:35:21.924Z,21.29
2023-02-16T05:40:21.877Z,20.50
2023-02-16T05:45:21.808Z,21.60
2023-02-16T05:50:21.742Z,21.70
2023-02-16T05:55:21.672Z,23.39
2023-02-16T06:00:21.612Z,21.89
2023-02-16T06:05:21.545Z,23.60
2023-02-16T06:10:21.483Z,25.50
2023-02-16T06:15:21.412Z,24.50
2023-02-16T06:20:21.357Z,21.70
2023-02-16T06:25:21.286Z,26.20
2023-02-16T06:30:21.254Z,23.10
2023-02-16T06:35:21.151Z,23.10
2023-02-16T06:40:21.094Z,20.70
2023-02-16T06:45:21.022Z,22.29
2023-02-16T06:50:20.965Z,26.79
2023-02-16T06:55:20.896Z,18.60
2023-02-16T07:00:20.843Z,24.60
2023-02-16T07:05:20.761Z,27.10
2023-02-16T07:10:20.709Z,23.60
2023-02-16T07:15:20.676Z,21.89
2023-02-16T07:20:20.575Z,22.20
2023-02-16T07:25:20.499Z,22.79
2023-02-16T07:30:20.501Z,23.29
2023-02-16T07:35:20.369Z,25.50
2023-02-16T07:40:20.316Z,20.39
2023-02-16T07:45:20.240Z,24.60
2023-02-16T07:50:20.182Z,25.70
2023-02-16T07:55:20.120Z,23.79
2023-02-16T08:00:20.054Z,27.70
2023-02-16T08:05:19.984Z,23.89
2023-02-16T08:10:19.920Z,24.29
2023-02-16T08:15:19.851Z,25.79
2023-02-16T08:20:20.320Z,24.50
2023-02-16T08:25:19.715Z,24.00
2023-02-16T08:30:19.728Z,23.10
2023-02-16T08:35:19.589Z,27.50
2023-02-16T08:40:19.527Z,28.60
2023-02-16T08:45:19.460Z,24.39
2023-02-16T08:50:19.389Z,21.00
2023-02-16T08:55:19.312Z,23.00
2023-02-16T09:00:19.251Z,19.50
2023-02-16T09:05:19.189Z,20.79
2023-02-16T09:10:19.119Z,19.89
2023-02-16T09:15:19.043Z,17.60
2023-02-16T09:20:18.989Z,17.20
2023-02-16T09:25:18.909Z,16.89
2023-02-16T09:30:18.896Z,18.00
2023-02-16T09:35:18.783Z,18.89
2023-02-16T09:40:18.714Z,18.29
2023-02-16T09:45:18.645Z,17.20
2023-02-16T09:50:27.828Z,18.20
2023-02-16T09:55:19.542Z,18.89
2023-02-16T10:00:18.463Z,16.60
2023-02-16T10:05:18.380Z,19.50
2023-02-16T10:10:18.323Z,17.29
2023-02-16T10:15:18.249Z,15.39
2023-02-16T10:20:18.203Z,16.20
2023-02-16T10:25:18.120Z,17.20
2023-02-16T10:30:18.125Z,17.29
2023-02-16T10:35:17.992Z,17.39
2023-02-16T10:40:17.940Z,16.79
2023-02-16T10:45:17.869Z,19.89
2023-02-16T10:50:17.995Z,16.89
2023-02-16T10:55:17.734Z,16.70
2023-02-16T11:00:17.677Z,16.70
2023-02-16T11:05:17.601Z,17.70
2023-02-16T11:10:17.541Z,15.89
2023-02-16T11:15:17.473Z,16.39
2023-02-16T11:20:17.413Z,19.20
2023-02-16T11:25:17.344Z,18.29
2023-02-16T11:30:17.321Z,17.79
2023-02-16T11:35:17.209Z,20.00
2023-02-16T11:40:17.149Z,16.89
2023-02-16T11:45:17.069Z,19.60
2023-02-16T11:50:17.025Z,17.89
2023-02-16T11:55:16.930Z,19.10
2023-02-16T12:00:16.871Z,23.00
2023-02-16T12:05:16.829Z,19.79
2023-02-16T12:10:16.739Z,19.39
2023-02-16T12:15:16.690Z,18.70
2023-02-16T12:20:16.606Z,31.29
2023-02-16T12:25:16.543Z,19.50
2023-02-16T12:30:16.535Z,20.70
2023-02-16T12:35:16.397Z,23.29
2023-02-16T12:40:16.348Z,20.89
2023-02-16T12:45:16.258Z,19.89
2023-02-16T12:50:16.201Z,20.20
2023-02-16T12:55:16.121Z,22.00
2023-02-16T13:00:16.075Z,22.10
2023-02-16T13:05:15.995Z,23.39
2023-02-16T13:10:15.936Z,24.79
2023-02-16T13:15:15.878Z,17.00
2023-02-16T13:20:15.809Z,21.70
2023-02-16T13:25:15.797Z,20.50
2023-02-16T13:30:15.770Z,26.70
2023-02-16T13:35:15.601Z,23.60
2023-02-16T13:40:15.541Z,22.60
2023-02-16T13:45:15.481Z,21.70
2023-02-16T13:50:15.407Z,22.00
2023-02-16T13:55:15.332Z,21.79
2023-02-16T14:00:15.272Z,23.50
2023-02-16T14:05:15.199Z,27.39
2023-02-16T14:10:15.145Z,25.60
2023-02-16T14:15:15.066Z,22.39
2023-02-16T14:20:15.026Z,22.10
2023-02-16T14:25:14.933Z,33.79
2023-02-16T14:30:14.984Z,23.60
2023-02-16T14:35:14.801Z,22.29
2023-02-16T14:40:14.746Z,25.00
2023-02-16T14:45:14.678Z,20.00
2023-02-16T14:50:14.605Z,19.29
2023-02-16T14:55:14.540Z,22.60
2023-02-16T15:00:14.472Z,19.79
2023-02-16T15:05:14.406Z,21.00
2023-02-16T15:10:14.349Z,21.20
2023-02-16T15:15:14.271Z,26.50
2023-02-16T15:20:14.195Z,19.29
2023-02-16T15:25:14.143Z,20.29
2023-02-16T15:30:14.102Z,20.29
2023-02-16T15:35:14.001Z,23.79
2023-02-16T15:40:25.088Z,22.20
2023-02-16T15:45:14.898Z,23.70
2023-02-16T15:50:13.790Z,25.60
2023-02-16T15:55:13.734Z,23.89
2023-02-16T16:00:13.653Z,22.00
2023-02-16T16:05:13.697Z,23.39
2023-02-16T16:10:13.520Z,20.89
2023-02-16T16:15:13.456Z,23.50
2023-02-16T16:20:13.440Z,24.10
2023-02-16T16:25:13.326Z,17.39
2023-02-16T16:30:13.310Z,22.60
2023-02-16T16:35:13.193Z,18.00
2023-02-16T16:40:13.126Z,16.89
2023-02-16T16:45:13.061Z,19.50
2023-02-16T16:50:12.987Z,18.10
2023-02-16T16:55:12.931Z,16.79
2023-02-16T17:00:12.864Z,18.39
2023-02-16T17:05:12.791Z,15.19
2023-02-16T17:10:12.725Z,14.80
2023-02-16T17:15:12.672Z,16.29
2023-02-16T17:20:12.587Z,13.80
2023-02-16T17:25:12.523Z,14.69
2023-02-16T17:30:12.495Z,13.10
2023-02-16T17:35:12.388Z,14.39
2023-02-16T17:40:12.315Z,14.80
2023-02-16T17:45:12.256Z,13.10
2023-02-16T17:50:12.181Z,14.80
2023-02-16T17:55:12.180Z,15.19
2023-02-16T18:00:12.054Z,15.50
2023-02-16T18:05:11.997Z,16.00
2023-02-16T18:10:11.914Z,17.60
2023-02-16T18:15:11.867Z,17.60
2023-02-16T18:20:11.785Z,18.79
2023-02-16T18:25:11.732Z,16.10
2023-02-16T18:30:11.741Z,17.39
2023-02-16T18:35:11.599Z,18.29
2023-02-16T18:40:11.531Z,21.29
2023-02-16T18:45:11.473Z,16.70
2023-02-16T18:50:11.394Z,19.00
2023-02-16T18:55:11.371Z,18.29
2023-02-16T19:00:11.306Z,15.39
2023-02-16T19:05:11.204Z,22.00
2023-02-16T19:10:11.129Z,16.39
2023-02-16T19:15:11.073Z,20.39
2023-02-16T19:20:10.997Z,19.10
2023-02-16T19:25:10.938Z,22.10
2023-02-16T19:30:10.936Z,20.39
2023-02-16T19:35:10.805Z,21.70
2023-02-16T19:40:10.753Z,14.10
2023-02-16T19:45:10.689Z,17.20
2023-02-16T19:50:10.593Z,15.19
2023-02-16T19:55:11.544Z,17.89
2023-02-16T20:00:10.454Z,19.50
2023-02-16T20:05:10.394Z,20.89
2023-02-16T20:10:10.345Z,17.29
2023-02-16T20:15:10.264Z,26.00
2023-02-16T20:20:10.203Z,16.20
2023-02-16T20:25:10.138Z,22.00
2023-02-16T20:30:10.071Z,16.60
2023-02-16T20:35:10.005Z,21.60
2023-02-16T20:40:10.106Z,17.60
2023-02-16T20:45:09.910Z,18.50
2023-02-16T20:50:09.842Z,21.39
2023-02-16T20:55:09.737Z,19.50
2023-02-16T21:00:09.657Z,19.70
2023-02-16T21:05:09.595Z,18.79
2023-02-16T21:10:09.528Z,16.89
2023-02-16T21:15:09.462Z,14.69
2023-02-16T21:20:09.390Z,17.50
2023-02-16T21:25:09.333Z,17.50
2023-02-16T21:30:09.322Z,15.50
2023-02-16T21:35:09.204Z,18.29
2023-02-16T21:40:09.120Z,17.29
2023-02-16T21:45:09.064Z,18.00
2023-02-16T21:50:08.987Z,19.50
2023-02-16T21:55:08.932Z,15.80
2023-02-16T22:00:08.855Z,16.60
2023-02-16T22:05:08.796Z,16.70
2023-02-16T22:10:08.719Z,16.89
2023-02-16T22:15:08.661Z,18.50
2023-02-16T22:20:08.605Z,17.79
2023-02-16T22:25:08.526Z,16.29
2023-02-16T22:30:08.522Z,19.00
2023-02-16T22:35:08.450Z,14.30
2023-02-16T22:40:08.330Z,15.19
2023-02-16T22:45:08.269Z,16.20
2023-02-16T22:50:08.193Z,13.69
2023-02-16T22:55:08.137Z,13.50
2023-02-16T23:00:08.404Z,16.70
2023-02-16T23:05:08.000Z,21.00
2023-02-16T23:10:07.926Z,16.20
2023-02-16T23:15:07.868Z,18.39
2023-02-16T23:20:07.792Z,16.00
2023-02-16T23:25:07.738Z,19.20
2023-02-16T23:30:07.773Z,14.10
2023-02-16T23:35:07.624Z,13.89
2023-02-16T23:40:07.524Z,14.30
2023-02-16T23:45:07.475Z,15.30
2023-02-16T23:50:07.412Z,16.70
2023-02-16T23:55:07.365Z,18.89
